sensor_id;sensor_type;location;lat;lon;timestamp;temperature;humidity
16907;DHT22;8570;52.380;4.654;2022-09-12T00:02:35;17.40;99.90
16907;DHT22;8570;52.380;4.654;2022-09-12T00:07:38;17.30;99.90
16907;DHT22;8570;52.380;4.654;2022-09-12T00:12:43;17.30;99.90
16907;DHT22;8570;52.380;4.654;2022-09-12T00:17:45;17.20;99.90
16907;DHT22;8570;52.380;4.654;2022-09-12T00:22:48;17.20;99.90
16907;DHT22;8570;52.380;4.654;2022-09-12T00:27:50;17.20;99.90
16907;DHT22;8570;52.380;4.654;2022-09-12T00:32:52;17.10;99.90
16907;DHT22;8570;52.380;4.654;2022-09-12T00:37:58;17.10;99.90
16907;DHT22;8570;52.380;4.654;2022-09-12T00:43:00;17.10;99.90
16907;DHT22;8570;52.380;4.654;2022-09-12T00:48:07;17.10;99.90
16907;DHT22;8570;52.380;4.654;2022-09-12T00:53:16;17.10;99.90
16907;DHT22;8570;52.380;4.654;2022-09-12T00:58:22;17.10;99.90
16907;DHT22;8570;52.380;4.654;2022-09-12T01:03:25;17.10;99.90
16907;DHT22;8570;52.380;4.654;2022-09-12T01:08:28;17.00;99.90
16907;DHT22;8570;52.380;4.654;2022-09-12T01:13:31;17.00;99.90
16907;DHT22;8570;52.380;4.654;2022-09-12T01:18:45;16.90;99.90
16907;DHT22;8570;52.380;4.654;2022-09-12T01:24:26;16.90;99.90
16907;DHT22;8570;52.380;4.654;2022-09-12T01:29:51;16.80;99.90
16907;DHT22;8570;52.380;4.654;2022-09-12T01:35:04;16.70;99.90
16907;DHT22;8570;52.380;4.654;2022-09-12T01:40:12;16.70;99.90
16907;DHT22;8570;52.380;4.654;2022-09-12T01:45:25;16.60;99.90
16907;DHT22;8570;52.380;4.654;2022-09-12T01:50:34;16.60;99.90
16907;DHT22;8570;52.380;4.654;2022-09-12T01:55:44;16.60;99.90
16907;DHT22;8570;52.380;4.654;2022-09-12T02:00:53;16.60;99.90
16907;DHT22;8570;52.380;4.654;2022-09-12T02:06:00;16.70;99.90
16907;DHT22;8570;52.380;4.654;2022-09-12T02:11:07;16.70;99.90
16907;DHT22;8570;52.380;4.654;2022-09-12T02:16:14;16.70;99.90
16907;DHT22;8570;52.380;4.654;2022-09-12T02:21:19;16.70;99.90
16907;DHT22;8570;52.380;4.654;2022-09-12T02:26:28;16.70;99.90
16907;DHT22;8570;52.380;4.654;2022-09-12T02:31:38;16.70;99.90
16907;DHT22;8570;52.380;4.654;2022-09-12T02:36:48;16.70;99.90
16907;DHT22;8570;52.380;4.654;2022-09-12T02:41:57;16.70;99.90
16907;DHT22;8570;52.380;4.654;2022-09-12T02:47:03;16.60;99.90
16907;DHT22;8570;52.380;4.654;2022-09-12T02:52:07;16.60;99.90
16907;DHT22;8570;52.380;4.654;2022-09-12T02:57:15;16.60;99.90
16907;DHT22;8570;52.380;4.654;2022-09-12T03:02:26;16.60;99.90
16907;DHT22;8570;52.380;4.654;2022-09-12T03:07:45;16.50;99.90
16907;DHT22;8570;52.380;4.654;2022-09-12T03:12:58;16.50;99.90
16907;DHT22;8570;52.380;4.654;2022-09-12T03:18:16;16.50;99.90
16907;DHT22;8570;52.380;4.654;2022-09-12T03:23:25;16.50;99.90
16907;DHT22;8570;52.380;4.654;2022-09-12T03:28:31;16.50;99.90
16907;DHT22;8570;52.380;4.654;2022-09-12T03:33:34;16.60;99.90
16907;DHT22;8570;52.380;4.654;2022-09-12T03:38:37;16.60;99.90
16907;DHT22;8570;52.380;4.654;2022-09-12T03:43:39;16.60;99.90
16907;DHT22;8570;52.380;4.654;2022-09-12T03:48:41;16.60;99.90
16907;DHT22;8570;52.380;4.654;2022-09-12T03:53:44;16.70;99.90
16907;DHT22;8570;52.380;4.654;2022-09-12T03:58:46;16.70;99.90
16907;DHT22;8570;52.380;4.654;2022-09-12T04:03:49;16.70;99.90
16907;DHT22;8570;52.380;4.654;2022-09-12T04:08:54;16.70;99.90
16907;DHT22;8570;52.380;4.654;2022-09-12T04:13:56;16.70;99.90
16907;DHT22;8570;52.380;4.654;2022-09-12T04:18:58;16.70;99.90
16907;DHT22;8570;52.380;4.654;2022-09-12T04:24:01;16.60;99.90
16907;DHT22;8570;52.380;4.654;2022-09-12T04:29:08;16.60;99.90
16907;DHT22;8570;52.380;4.654;2022-09-12T04:34:10;16.60;99.90
16907;DHT22;8570;52.380;4.654;2022-09-12T04:39:13;16.60;99.90
16907;DHT22;8570;52.380;4.654;2022-09-12T04:44:18;16.60;99.90
16907;DHT22;8570;52.380;4.654;2022-09-12T04:49:20;16.50;99.90
16907;DHT22;8570;52.380;4.654;2022-09-12T04:54:23;16.70;99.90
16907;DHT22;8570;52.380;4.654;2022-09-12T04:59:25;16.80;99.90
16907;DHT22;8570;52.380;4.654;2022-09-12T05:04:27;16.90;99.90
16907;DHT22;8570;52.380;4.654;2022-09-12T05:09:33;17.00;99.90
16907;DHT22;8570;52.380;4.654;2022-09-12T05:14:35;17.40;99.90
16907;DHT22;8570;52.380;4.654;2022-09-12T05:19:43;17.40;99.90
16907;DHT22;8570;52.380;4.654;2022-09-12T05:24:46;17.30;99.90
16907;DHT22;8570;52.380;4.654;2022-09-12T05:29:48;17.10;99.90
16907;DHT22;8570;52.380;4.654;2022-09-12T05:34:50;17.20;99.90
16907;DHT22;8570;52.380;4.654;2022-09-12T05:39:53;17.40;99.90
16907;DHT22;8570;52.380;4.654;2022-09-12T05:44:55;17.50;99.90
16907;DHT22;8570;52.380;4.654;2022-09-12T05:49:57;17.60;99.90
16907;DHT22;8570;52.380;4.654;2022-09-12T05:55:00;17.50;99.90
16907;DHT22;8570;52.380;4.654;2022-09-12T06:00:03;17.30;99.90
16907;DHT22;8570;52.380;4.654;2022-09-12T06:05:07;17.10;99.90
16907;DHT22;8570;52.380;4.654;2022-09-12T06:10:10;16.90;99.90
16907;DHT22;8570;52.380;4.654;2022-09-12T06:15:12;16.80;99.90
16907;DHT22;8570;52.380;4.654;2022-09-12T06:20:16;16.70;99.90
16907;DHT22;8570;52.380;4.654;2022-09-12T06:25:21;16.70;99.90
16907;DHT22;8570;52.380;4.654;2022-09-12T06:30:23;16.60;99.90
16907;DHT22;8570;52.380;4.654;2022-09-12T06:35:26;16.50;99.90
16907;DHT22;8570;52.380;4.654;2022-09-12T06:40:29;16.50;99.90
16907;DHT22;8570;52.380;4.654;2022-09-12T06:45:31;16.40;99.90
16907;DHT22;8570;52.380;4.654;2022-09-12T06:50:33;16.40;99.90
16907;DHT22;8570;52.380;4.654;2022-09-12T06:55:36;16.40;99.90
16907;DHT22;8570;52.380;4.654;2022-09-12T07:00:39;16.50;99.90
16907;DHT22;8570;52.380;4.654;2022-09-12T07:05:40;16.50;99.90
16907;DHT22;8570;52.380;4.654;2022-09-12T07:10:44;16.50;99.90
16907;DHT22;8570;52.380;4.654;2022-09-12T07:15:46;16.50;99.90
16907;DHT22;8570;52.380;4.654;2022-09-12T07:20:49;16.60;99.90
16907;DHT22;8570;52.380;4.654;2022-09-12T07:25:53;16.60;99.90
16907;DHT22;8570;52.380;4.654;2022-09-12T07:30:57;16.70;99.90
16907;DHT22;8570;52.380;4.654;2022-09-12T09:21:10;20.70;99.90
16907;DHT22;8570;52.380;4.654;2022-09-12T09:26:16;20.90;99.90
16907;DHT22;8570;52.380;4.654;2022-09-12T09:31:32;21.20;99.90
16907;DHT22;8570;52.380;4.654;2022-09-12T09:36:47;21.40;99.90
16907;DHT22;8570;52.380;4.654;2022-09-12T09:42:00;21.70;99.90
16907;DHT22;8570;52.380;4.654;2022-09-12T09:47:09;21.90;99.90
16907;DHT22;8570;52.380;4.654;2022-09-12T09:52:23;22.10;99.90
16907;DHT22;8570;52.380;4.654;2022-09-12T09:57:39;22.30;99.90
16907;DHT22;8570;52.380;4.654;2022-09-12T10:02:42;22.60;99.90
16907;DHT22;8570;52.380;4.654;2022-09-12T10:07:51;22.70;99.90
16907;DHT22;8570;52.380;4.654;2022-09-12T10:13:06;22.80;99.90
16907;DHT22;8570;52.380;4.654;2022-09-12T10:18:08;22.80;99.90
16907;DHT22;8570;52.380;4.654;2022-09-12T10:28:32;23.30;99.90
16907;DHT22;8570;52.380;4.654;2022-09-12T10:33:39;23.50;99.90
16907;DHT22;8570;52.380;4.654;2022-09-12T10:38:49;23.40;99.90
16907;DHT22;8570;52.380;4.654;2022-09-12T10:43:52;23.40;99.90
16907;DHT22;8570;52.380;4.654;2022-09-12T10:49:20;23.30;99.90
16907;DHT22;8570;52.380;4.654;2022-09-12T10:54:26;23.40;99.90
16907;DHT22;8570;52.380;4.654;2022-09-12T10:59:36;23.60;99.90
16907;DHT22;8570;52.380;4.654;2022-09-12T11:04:48;23.70;99.90
16907;DHT22;8570;52.380;4.654;2022-09-12T11:10:04;23.80;99.90
16907;DHT22;8570;52.380;4.654;2022-09-12T11:15:22;23.90;99.90
16907;DHT22;8570;52.380;4.654;2022-09-12T11:20:45;24.20;99.90
16907;DHT22;8570;52.380;4.654;2022-09-12T11:26:00;24.30;98.90
16907;DHT22;8570;52.380;4.654;2022-09-12T11:31:51;24.20;98.60
16907;DHT22;8570;52.380;4.654;2022-09-12T11:37:07;24.20;97.90
16907;DHT22;8570;52.380;4.654;2022-09-12T11:42:17;24.30;98.30
16907;DHT22;8570;52.380;4.654;2022-09-12T11:47:23;24.20;98.70
16907;DHT22;8570;52.380;4.654;2022-09-12T11:52:29;24.30;97.90
16907;DHT22;8570;52.380;4.654;2022-09-12T11:57:40;24.40;97.40
16907;DHT22;8570;52.380;4.654;2022-09-12T12:02:54;24.60;97.30
16907;DHT22;8570;52.380;4.654;2022-09-12T12:08:00;24.80;96.90
16907;DHT22;8570;52.380;4.654;2022-09-12T12:13:17;24.80;96.60
16907;DHT22;8570;52.380;4.654;2022-09-12T12:18:23;24.80;96.20
16907;DHT22;8570;52.380;4.654;2022-09-12T12:23:28;24.90;95.70
16907;DHT22;8570;52.380;4.654;2022-09-12T12:28:58;24.90;95.60
16907;DHT22;8570;52.380;4.654;2022-09-12T12:34:19;25.20;94.80
16907;DHT22;8570;52.380;4.654;2022-09-12T12:50:49;25.40;93.70
16907;DHT22;8570;52.380;4.654;2022-09-12T12:55:51;25.40;93.80
16907;DHT22;8570;52.380;4.654;2022-09-12T13:01:10;25.40;93.50
16907;DHT22;8570;52.380;4.654;2022-09-12T13:06:28;25.30;94.00
16907;DHT22;8570;52.380;4.654;2022-09-12T13:11:34;25.20;93.50
16907;DHT22;8570;52.380;4.654;2022-09-12T13:16:50;25.10;93.80
16907;DHT22;8570;52.380;4.654;2022-09-12T13:21:54;25.10;94.30
16907;DHT22;8570;52.380;4.654;2022-09-12T13:26:56;25.10;94.40
16907;DHT22;8570;52.380;4.654;2022-09-12T13:32:00;25.10;94.20
16907;DHT22;8570;52.380;4.654;2022-09-12T13:37:15;25.20;93.50
16907;DHT22;8570;52.380;4.654;2022-09-12T13:42:37;25.30;92.80
16907;DHT22;8570;52.380;4.654;2022-09-12T13:47:43;25.20;92.60
16907;DHT22;8570;52.380;4.654;2022-09-12T13:52:48;25.20;92.60
16907;DHT22;8570;52.380;4.654;2022-09-12T13:57:56;25.30;93.10
16907;DHT22;8570;52.380;4.654;2022-09-12T14:03:00;25.30;92.90
16907;DHT22;8570;52.380;4.654;2022-09-12T14:08:20;25.30;92.90
16907;DHT22;8570;52.380;4.654;2022-09-12T14:13:24;25.30;92.40
16907;DHT22;8570;52.380;4.654;2022-09-12T14:18:36;25.40;92.00
16907;DHT22;8570;52.380;4.654;2022-09-12T14:23:40;25.40;92.00
16907;DHT22;8570;52.380;4.654;2022-09-12T14:28:44;25.10;92.10
16907;DHT22;8570;52.380;4.654;2022-09-12T14:33:49;25.10;92.80
16907;DHT22;8570;52.380;4.654;2022-09-12T14:38:54;25.10;92.90
16907;DHT22;8570;52.380;4.654;2022-09-12T14:43:58;25.20;93.50
16907;DHT22;8570;52.380;4.654;2022-09-12T14:49:13;25.30;95.20
16907;DHT22;8570;52.380;4.654;2022-09-12T14:54:39;25.20;95.60
16907;DHT22;8570;52.380;4.654;2022-09-12T14:59:43;25.10;95.90
16907;DHT22;8570;52.380;4.654;2022-09-12T15:04:48;25.00;96.10
16907;DHT22;8570;52.380;4.654;2022-09-12T15:09:50;24.90;96.10
16907;DHT22;8570;52.380;4.654;2022-09-12T15:14:53;24.80;96.50
16907;DHT22;8570;52.380;4.654;2022-09-12T15:19:59;24.80;96.50
16907;DHT22;8570;52.380;4.654;2022-09-12T15:25:01;24.80;96.70
16907;DHT22;8570;52.380;4.654;2022-09-12T15:30:04;24.80;96.90
16907;DHT22;8570;52.380;4.654;2022-09-12T15:35:11;24.80;97.10
16907;DHT22;8570;52.380;4.654;2022-09-12T15:40:16;24.80;96.80
16907;DHT22;8570;52.380;4.654;2022-09-12T15:45:20;24.80;97.10
16907;DHT22;8570;52.380;4.654;2022-09-12T15:50:24;24.70;97.00
16907;DHT22;8570;52.380;4.654;2022-09-12T15:55:28;24.60;97.20
16907;DHT22;8570;52.380;4.654;2022-09-12T16:00:31;24.50;97.20
16907;DHT22;8570;52.380;4.654;2022-09-12T16:05:34;24.30;97.30
16907;DHT22;8570;52.380;4.654;2022-09-12T16:10:38;24.20;97.60
16907;DHT22;8570;52.380;4.654;2022-09-12T16:15:40;24.10;97.80
16907;DHT22;8570;52.380;4.654;2022-09-12T16:20:43;24.00;98.10
16907;DHT22;8570;52.380;4.654;2022-09-12T16:25:45;24.00;98.20
16907;DHT22;8570;52.380;4.654;2022-09-12T16:30:56;24.00;98.30
16907;DHT22;8570;52.380;4.654;2022-09-12T16:36:04;24.00;98.10
16907;DHT22;8570;52.380;4.654;2022-09-12T16:41:07;24.00;98.00
16907;DHT22;8570;52.380;4.654;2022-09-12T16:46:10;23.80;98.10
16907;DHT22;8570;52.380;4.654;2022-09-12T16:51:15;23.80;98.30
16907;DHT22;8570;52.380;4.654;2022-09-12T16:56:17;23.70;98.40
16907;DHT22;8570;52.380;4.654;2022-09-12T17:01:21;23.60;98.50
16907;DHT22;8570;52.380;4.654;2022-09-12T17:06:26;23.50;98.90
16907;DHT22;8570;52.380;4.654;2022-09-12T17:11:30;23.50;99.40
16907;DHT22;8570;52.380;4.654;2022-09-12T17:16:35;23.40;99.30
16907;DHT22;8570;52.380;4.654;2022-09-12T17:21:38;23.30;99.50
16907;DHT22;8570;52.380;4.654;2022-09-12T17:26:40;23.30;99.70
16907;DHT22;8570;52.380;4.654;2022-09-12T17:31:43;23.30;99.90
16907;DHT22;8570;52.380;4.654;2022-09-12T17:36:46;23.20;99.90
16907;DHT22;8570;52.380;4.654;2022-09-12T17:41:48;23.10;99.90
16907;DHT22;8570;52.380;4.654;2022-09-12T17:46:51;23.00;99.90
16907;DHT22;8570;52.380;4.654;2022-09-12T17:51:54;22.90;99.90
16907;DHT22;8570;52.380;4.654;2022-09-12T17:56:57;22.80;99.90
16907;DHT22;8570;52.380;4.654;2022-09-12T18:01:59;22.70;99.90
16907;DHT22;8570;52.380;4.654;2022-09-12T18:07:16;22.50;99.90
16907;DHT22;8570;52.380;4.654;2022-09-12T18:12:18;22.30;99.90
16907;DHT22;8570;52.380;4.654;2022-09-12T18:17:20;22.30;99.90
16907;DHT22;8570;52.380;4.654;2022-09-12T18:22:23;22.20;99.90
16907;DHT22;8570;52.380;4.654;2022-09-12T18:27:25;22.40;99.90
16907;DHT22;8570;52.380;4.654;2022-09-12T18:32:27;22.40;99.90
16907;DHT22;8570;52.380;4.654;2022-09-12T18:37:30;22.40;99.90
16907;DHT22;8570;52.380;4.654;2022-09-12T18:42:32;22.30;99.90
16907;DHT22;8570;52.380;4.654;2022-09-12T18:47:34;22.20;99.90
16907;DHT22;8570;52.380;4.654;2022-09-12T18:52:37;22.20;99.90
16907;DHT22;8570;52.380;4.654;2022-09-12T18:57:39;22.20;99.90
16907;DHT22;8570;52.380;4.654;2022-09-12T19:02:41;22.10;99.90
16907;DHT22;8570;52.380;4.654;2022-09-12T19:07:44;22.10;99.90
16907;DHT22;8570;52.380;4.654;2022-09-12T19:12:46;22.10;99.90
16907;DHT22;8570;52.380;4.654;2022-09-12T19:17:48;22.40;99.90
16907;DHT22;8570;52.380;4.654;2022-09-12T19:22:52;22.50;99.90
16907;DHT22;8570;52.380;4.654;2022-09-12T19:27:54;22.30;99.90
16907;DHT22;8570;52.380;4.654;2022-09-12T19:32:56;22.20;99.90
16907;DHT22;8570;52.380;4.654;2022-09-12T19:37:59;22.10;99.90
16907;DHT22;8570;52.380;4.654;2022-09-12T19:43:01;22.00;99.90
16907;DHT22;8570;52.380;4.654;2022-09-12T19:48:03;22.00;99.90
16907;DHT22;8570;52.380;4.654;2022-09-12T19:53:06;22.00;99.90
16907;DHT22;8570;52.380;4.654;2022-09-12T19:58:09;22.00;99.90
16907;DHT22;8570;52.380;4.654;2022-09-12T20:03:11;21.90;99.90
16907;DHT22;8570;52.380;4.654;2022-09-12T20:08:14;21.80;99.90
16907;DHT22;8570;52.380;4.654;2022-09-12T20:13:18;21.80;99.90
16907;DHT22;8570;52.380;4.654;2022-09-12T20:18:20;21.70;99.90
16907;DHT22;8570;52.380;4.654;2022-09-12T20:23:24;21.70;99.90
16907;DHT22;8570;52.380;4.654;2022-09-12T20:28:25;21.60;99.90
16907;DHT22;8570;52.380;4.654;2022-09-12T20:33:28;21.50;99.90
16907;DHT22;8570;52.380;4.654;2022-09-12T20:38:32;21.40;99.90
16907;DHT22;8570;52.380;4.654;2022-09-12T20:43:34;21.40;99.90
16907;DHT22;8570;52.380;4.654;2022-09-12T20:48:38;21.30;99.90
16907;DHT22;8570;52.380;4.654;2022-09-12T20:53:41;21.30;99.90
16907;DHT22;8570;52.380;4.654;2022-09-12T20:58:43;21.30;99.90
16907;DHT22;8570;52.380;4.654;2022-09-12T21:03:45;21.30;99.90
16907;DHT22;8570;52.380;4.654;2022-09-12T21:08:49;21.30;99.90
16907;DHT22;8570;52.380;4.654;2022-09-12T21:13:51;21.30;99.90
16907;DHT22;8570;52.380;4.654;2022-09-12T21:18:57;21.40;99.90
16907;DHT22;8570;52.380;4.654;2022-09-12T21:24:01;21.30;99.90
16907;DHT22;8570;52.380;4.654;2022-09-12T21:29:03;21.30;99.90
16907;DHT22;8570;52.380;4.654;2022-09-12T21:34:05;21.20;99.90
16907;DHT22;8570;52.380;4.654;2022-09-12T21:39:09;21.20;99.90
16907;DHT22;8570;52.380;4.654;2022-09-12T21:44:11;21.10;99.90
16907;DHT22;8570;52.380;4.654;2022-09-12T21:49:13;21.10;99.90
16907;DHT22;8570;52.380;4.654;2022-09-12T21:54:16;21.00;99.90
16907;DHT22;8570;52.380;4.654;2022-09-12T21:59:18;21.00;99.90
16907;DHT22;8570;52.380;4.654;2022-09-12T22:04:20;20.90;99.90
16907;DHT22;8570;52.380;4.654;2022-09-12T22:09:23;21.00;99.90
16907;DHT22;8570;52.380;4.654;2022-09-12T22:14:25;20.90;99.90
16907;DHT22;8570;52.380;4.654;2022-09-12T22:19:27;20.90;99.90
16907;DHT22;8570;52.380;4.654;2022-09-12T22:24:30;20.80;99.90
16907;DHT22;8570;52.380;4.654;2022-09-12T22:29:32;20.80;99.90
16907;DHT22;8570;52.380;4.654;2022-09-12T22:34:38;20.80;99.90
16907;DHT22;8570;52.380;4.654;2022-09-12T22:39:43;20.80;99.90
16907;DHT22;8570;52.380;4.654;2022-09-12T22:44:45;20.70;99.90
16907;DHT22;8570;52.380;4.654;2022-09-12T22:49:47;20.80;99.90
16907;DHT22;8570;52.380;4.654;2022-09-12T22:54:50;20.80;99.90
16907;DHT22;8570;52.380;4.654;2022-09-12T22:59:52;20.80;99.90
16907;DHT22;8570;52.380;4.654;2022-09-12T23:04:54;20.70;99.90
16907;DHT22;8570;52.380;4.654;2022-09-12T23:09:57;20.70;99.90
16907;DHT22;8570;52.380;4.654;2022-09-12T23:14:59;20.80;99.90
16907;DHT22;8570;52.380;4.654;2022-09-12T23:20:01;20.80;99.90
16907;DHT22;8570;52.380;4.654;2022-09-12T23:25:06;20.80;99.90
16907;DHT22;8570;52.380;4.654;2022-09-12T23:30:09;20.80;99.90
16907;DHT22;8570;52.380;4.654;2022-09-12T23:35:11;20.80;99.90
16907;DHT22;8570;52.380;4.654;2022-09-12T23:40:15;20.90;99.90
16907;DHT22;8570;52.380;4.654;2022-09-12T23:45:17;20.90;99.90
16907;DHT22;8570;52.380;4.654;2022-09-12T23:50:19;20.90;99.90
16907;DHT22;8570;52.380;4.654;2022-09-12T23:55:22;20.90;99.90
